sensor_id;sensor_type;location;lat;lon;timestamp;temperature;humidity
66522;SHT31;53349;53.538;8.584;2022-09-09T00:04:00;14.98;86.17
66522;SHT31;53349;53.538;8.584;2022-09-09T00:06:31;14.89;86.06
66522;SHT31;53349;53.538;8.584;2022-09-09T00:09:12;14.89;86.10
66522;SHT31;53349;53.538;8.584;2022-09-09T00:11:51;14.89;86.11
66522;SHT31;53349;53.538;8.584;2022-09-09T00:14:29;14.89;86.22
66522;SHT31;53349;53.538;8.584;2022-09-09T00:17:04;14.91;86.17
66522;SHT31;53349;53.538;8.584;2022-09-09T00:19:39;14.91;86.15
66522;SHT31;53349;53.538;8.584;2022-09-09T00:22:15;14.91;86.13
66522;SHT31;53349;53.538;8.584;2022-09-09T00:24:46;14.89;86.21
66522;SHT31;53349;53.538;8.584;2022-09-09T00:27:40;14.89;86.10
66522;SHT31;53349;53.538;8.584;2022-09-09T00:30:20;14.89;86.20
66522;SHT31;53349;53.538;8.584;2022-09-09T00:32:49;14.91;86.21
66522;SHT31;53349;53.538;8.584;2022-09-09T00:35:42;14.91;86.21
66522;SHT31;53349;53.538;8.584;2022-09-09T00:38:24;14.91;86.22
66522;SHT31;53349;53.538;8.584;2022-09-09T00:41:18;14.92;86.20
66522;SHT31;53349;53.538;8.584;2022-09-09T00:43:41;14.88;86.17
66522;SHT31;53349;53.538;8.584;2022-09-09T00:54:32;14.85;86.29
66522;SHT31;53349;53.538;8.584;2022-09-09T00:57:23;14.86;86.18
66522;SHT31;53349;53.538;8.584;2022-09-09T00:59:59;14.85;86.16
66522;SHT31;53349;53.538;8.584;2022-09-09T01:02:31;14.86;86.05
66522;SHT31;53349;53.538;8.584;2022-09-09T01:05:27;14.89;86.11
66522;SHT31;53349;53.538;8.584;2022-09-09T01:07:58;14.91;86.09
66522;SHT31;53349;53.538;8.584;2022-09-09T01:10:47;14.88;86.22
66522;SHT31;53349;53.538;8.584;2022-09-09T01:13:22;14.86;86.06
66522;SHT31;53349;53.538;8.584;2022-09-09T01:15:49;14.86;85.98
66522;SHT31;53349;53.538;8.584;2022-09-09T01:18:20;14.84;85.94
66522;SHT31;53349;53.538;8.584;2022-09-09T01:28:58;14.89;86.13
66522;SHT31;53349;53.538;8.584;2022-09-09T01:31:40;14.89;86.12
66522;SHT31;53349;53.538;8.584;2022-09-09T01:34:11;14.88;86.07
66522;SHT31;53349;53.538;8.584;2022-09-09T01:39:26;14.88;86.10
66522;SHT31;53349;53.538;8.584;2022-09-09T01:41:53;14.89;86.05
66522;SHT31;53349;53.538;8.584;2022-09-09T01:44:20;14.88;86.10
66522;SHT31;53349;53.538;8.584;2022-09-09T01:46:46;14.88;86.14
66522;SHT31;53349;53.538;8.584;2022-09-09T01:49:12;14.88;86.19
66522;SHT31;53349;53.538;8.584;2022-09-09T01:51:39;14.92;86.06
66522;SHT31;53349;53.538;8.584;2022-09-09T01:54:06;14.82;86.00
66522;SHT31;53349;53.538;8.584;2022-09-09T01:57:31;14.86;86.06
66522;SHT31;53349;53.538;8.584;2022-09-09T02:00:06;14.82;86.11
66522;SHT31;53349;53.538;8.584;2022-09-09T02:07:49;14.79;86.08
66522;SHT31;53349;53.538;8.584;2022-09-09T02:10:30;14.79;86.07
66522;SHT31;53349;53.538;8.584;2022-09-09T02:13:02;14.81;85.92
66522;SHT31;53349;53.538;8.584;2022-09-09T02:18:06;14.78;85.89
66522;SHT31;53349;53.538;8.584;2022-09-09T02:20:37;14.74;85.90
66522;SHT31;53349;53.538;8.584;2022-09-09T02:23:06;14.75;85.89
66522;SHT31;53349;53.538;8.584;2022-09-09T02:25:36;14.72;85.84
66522;SHT31;53349;53.538;8.584;2022-09-09T02:28:04;14.68;85.81
66522;SHT31;53349;53.538;8.584;2022-09-09T02:30:32;14.67;85.89
66522;SHT31;53349;53.538;8.584;2022-09-09T02:33:01;14.68;85.84
66522;SHT31;53349;53.538;8.584;2022-09-09T02:35:33;14.67;85.75
66522;SHT31;53349;53.538;8.584;2022-09-09T02:38:07;14.61;85.67
66522;SHT31;53349;53.538;8.584;2022-09-09T02:40:33;14.57;85.66
66522;SHT31;53349;53.538;8.584;2022-09-09T02:42:58;14.55;85.68
66522;SHT31;53349;53.538;8.584;2022-09-09T02:45:30;14.49;85.56
66522;SHT31;53349;53.538;8.584;2022-09-09T02:48:21;14.45;85.60
66522;SHT31;53349;53.538;8.584;2022-09-09T02:51:08;14.41;85.63
66522;SHT31;53349;53.538;8.584;2022-09-09T02:56:17;14.37;85.69
66522;SHT31;53349;53.538;8.584;2022-09-09T02:58:45;14.37;85.70
66522;SHT31;53349;53.538;8.584;2022-09-09T03:01:11;14.37;85.63
66522;SHT31;53349;53.538;8.584;2022-09-09T03:03:37;14.36;85.65
66522;SHT31;53349;53.538;8.584;2022-09-09T03:06:03;14.33;85.59
66522;SHT31;53349;53.538;8.584;2022-09-09T03:08:30;14.34;85.56
66522;SHT31;53349;53.538;8.584;2022-09-09T03:10:58;14.31;85.43
66522;SHT31;53349;53.538;8.584;2022-09-09T03:13:24;14.27;85.41
66522;SHT31;53349;53.538;8.584;2022-09-09T03:15:50;14.24;85.38
66522;SHT31;53349;53.538;8.584;2022-09-09T03:18:16;14.26;85.36
66522;SHT31;53349;53.538;8.584;2022-09-09T03:20:42;14.23;85.38
66522;SHT31;53349;53.538;8.584;2022-09-09T03:23:08;14.23;85.48
66522;SHT31;53349;53.538;8.584;2022-09-09T03:25:33;14.26;85.46
66522;SHT31;53349;53.538;8.584;2022-09-09T03:28:00;14.21;85.48
66522;SHT31;53349;53.538;8.584;2022-09-09T03:30:27;14.21;85.41
66522;SHT31;53349;53.538;8.584;2022-09-09T03:32:53;14.21;85.40
66522;SHT31;53349;53.538;8.584;2022-09-09T03:35:19;14.24;85.21
66522;SHT31;53349;53.538;8.584;2022-09-09T03:37:45;14.20;85.25
66522;SHT31;53349;53.538;8.584;2022-09-09T03:40:10;14.17;85.40
66522;SHT31;53349;53.538;8.584;2022-09-09T03:42:37;14.16;85.42
66522;SHT31;53349;53.538;8.584;2022-09-09T03:45:04;14.16;85.46
66522;SHT31;53349;53.538;8.584;2022-09-09T03:47:30;14.13;85.43
66522;SHT31;53349;53.538;8.584;2022-09-09T03:49:57;14.12;85.36
66522;SHT31;53349;53.538;8.584;2022-09-09T03:52:23;14.10;85.28
66522;SHT31;53349;53.538;8.584;2022-09-09T03:54:50;14.09;85.38
66522;SHT31;53349;53.538;8.584;2022-09-09T03:57:16;14.12;85.46
66522;SHT31;53349;53.538;8.584;2022-09-09T03:59:43;14.09;85.48
66522;SHT31;53349;53.538;8.584;2022-09-09T04:02:08;14.09;85.42
66522;SHT31;53349;53.538;8.584;2022-09-09T04:04:34;14.14;85.39
66522;SHT31;53349;53.538;8.584;2022-09-09T04:06:59;14.14;85.42
66522;SHT31;53349;53.538;8.584;2022-09-09T04:09:25;14.14;85.55
66522;SHT31;53349;53.538;8.584;2022-09-09T04:11:50;14.16;85.49
66522;SHT31;53349;53.538;8.584;2022-09-09T04:14:16;14.20;85.42
66522;SHT31;53349;53.538;8.584;2022-09-09T04:16:41;14.21;85.53
66522;SHT31;53349;53.538;8.584;2022-09-09T04:19:10;14.24;85.46
66522;SHT31;53349;53.538;8.584;2022-09-09T04:21:38;14.24;85.39
66522;SHT31;53349;53.538;8.584;2022-09-09T04:24:06;14.26;85.43
66522;SHT31;53349;53.538;8.584;2022-09-09T04:26:32;14.28;85.37
66522;SHT31;53349;53.538;8.584;2022-09-09T04:28:58;14.27;85.33
66522;SHT31;53349;53.538;8.584;2022-09-09T04:31:23;14.24;85.31
66522;SHT31;53349;53.538;8.584;2022-09-09T04:33:52;14.23;85.41
66522;SHT31;53349;53.538;8.584;2022-09-09T04:36:18;14.21;85.35
66522;SHT31;53349;53.538;8.584;2022-09-09T04:38:45;14.23;85.42
66522;SHT31;53349;53.538;8.584;2022-09-09T04:41:11;14.28;85.39
66522;SHT31;53349;53.538;8.584;2022-09-09T04:43:38;14.31;85.19
66522;SHT31;53349;53.538;8.584;2022-09-09T04:46:05;14.34;85.24
66522;SHT31;53349;53.538;8.584;2022-09-09T04:48:31;14.37;85.18
66522;SHT31;53349;53.538;8.584;2022-09-09T04:51:09;14.38;85.22
66522;SHT31;53349;53.538;8.584;2022-09-09T04:53:37;14.40;85.22
66522;SHT31;53349;53.538;8.584;2022-09-09T04:56:12;14.41;85.27
66522;SHT31;53349;53.538;8.584;2022-09-09T04:58:38;14.45;85.38
66522;SHT31;53349;53.538;8.584;2022-09-09T05:01:12;14.51;85.36
66522;SHT31;53349;53.538;8.584;2022-09-09T05:03:38;14.52;85.39
66522;SHT31;53349;53.538;8.584;2022-09-09T05:06:08;14.52;85.31
66522;SHT31;53349;53.538;8.584;2022-09-09T05:08:36;14.54;85.28
66522;SHT31;53349;53.538;8.584;2022-09-09T05:11:04;14.55;85.34
66522;SHT31;53349;53.538;8.584;2022-09-09T05:13:36;14.55;85.20
66522;SHT31;53349;53.538;8.584;2022-09-09T05:16:02;14.57;85.23
66522;SHT31;53349;53.538;8.584;2022-09-09T05:18:27;14.54;85.07
66522;SHT31;53349;53.538;8.584;2022-09-09T05:20:58;14.54;85.05
66522;SHT31;53349;53.538;8.584;2022-09-09T05:23:24;14.51;85.05
66522;SHT31;53349;53.538;8.584;2022-09-09T05:25:57;14.51;84.94
66522;SHT31;53349;53.538;8.584;2022-09-09T05:28:24;14.52;85.02
66522;SHT31;53349;53.538;8.584;2022-09-09T05:31:01;14.55;85.02
66522;SHT31;53349;53.538;8.584;2022-09-09T05:33:31;14.54;84.79
66522;SHT31;53349;53.538;8.584;2022-09-09T05:36:01;14.54;84.87
66522;SHT31;53349;53.538;8.584;2022-09-09T05:38:28;14.54;84.96
66522;SHT31;53349;53.538;8.584;2022-09-09T05:40:54;14.57;85.02
66522;SHT31;53349;53.538;8.584;2022-09-09T05:43:23;14.61;84.90
66522;SHT31;53349;53.538;8.584;2022-09-09T05:45:58;14.61;84.83
66522;SHT31;53349;53.538;8.584;2022-09-09T05:48:29;14.64;84.74
66522;SHT31;53349;53.538;8.584;2022-09-09T05:50:55;14.68;84.77
66522;SHT31;53349;53.538;8.584;2022-09-09T05:53:21;14.67;84.73
66522;SHT31;53349;53.538;8.584;2022-09-09T05:55:47;14.72;84.78
66522;SHT31;53349;53.538;8.584;2022-09-09T05:58:14;14.75;84.75
66522;SHT31;53349;53.538;8.584;2022-09-09T06:00:40;14.77;84.64
66522;SHT31;53349;53.538;8.584;2022-09-09T06:03:05;14.72;84.56
66522;SHT31;53349;53.538;8.584;2022-09-09T06:05:31;14.72;84.51
66522;SHT31;53349;53.538;8.584;2022-09-09T06:07:56;14.71;84.55
66522;SHT31;53349;53.538;8.584;2022-09-09T06:10:22;14.71;84.49
66522;SHT31;53349;53.538;8.584;2022-09-09T06:12:47;14.71;84.60
66522;SHT31;53349;53.538;8.584;2022-09-09T06:15:13;14.78;84.58
66522;SHT31;53349;53.538;8.584;2022-09-09T06:17:41;14.84;84.40
66522;SHT31;53349;53.538;8.584;2022-09-09T06:20:07;15.06;84.05
66522;SHT31;53349;53.538;8.584;2022-09-09T06:22:35;15.39;83.11
66522;SHT31;53349;53.538;8.584;2022-09-09T06:25:01;15.60;81.87
66522;SHT31;53349;53.538;8.584;2022-09-09T06:27:27;15.84;81.28
66522;SHT31;53349;53.538;8.584;2022-09-09T06:29:53;16.01;80.09
66522;SHT31;53349;53.538;8.584;2022-09-09T06:32:19;16.28;79.55
66522;SHT31;53349;53.538;8.584;2022-09-09T06:34:44;16.57;78.79
66522;SHT31;53349;53.538;8.584;2022-09-09T06:37:10;16.66;77.97
66522;SHT31;53349;53.538;8.584;2022-09-09T06:39:36;16.91;77.35
66522;SHT31;53349;53.538;8.584;2022-09-09T06:42:01;17.08;76.93
66522;SHT31;53349;53.538;8.584;2022-09-09T06:44:27;17.11;76.15
66522;SHT31;53349;53.538;8.584;2022-09-09T06:46:53;17.23;75.68
66522;SHT31;53349;53.538;8.584;2022-09-09T06:49:18;17.41;75.46
66522;SHT31;53349;53.538;8.584;2022-09-09T06:51:44;17.34;75.94
66522;SHT31;53349;53.538;8.584;2022-09-09T06:54:11;17.45;75.74
66522;SHT31;53349;53.538;8.584;2022-09-09T06:56:38;17.57;75.52
66522;SHT31;53349;53.538;8.584;2022-09-09T06:59:07;17.58;74.84
66522;SHT31;53349;53.538;8.584;2022-09-09T07:01:43;17.65;74.80
66522;SHT31;53349;53.538;8.584;2022-09-09T07:04:17;17.83;74.85
66522;SHT31;53349;53.538;8.584;2022-09-09T07:06:44;17.64;74.56
66522;SHT31;53349;53.538;8.584;2022-09-09T07:09:12;17.69;74.43
66522;SHT31;53349;53.538;8.584;2022-09-09T07:11:41;17.59;74.36
66522;SHT31;53349;53.538;8.584;2022-09-09T07:14:07;17.55;74.68
66522;SHT31;53349;53.538;8.584;2022-09-09T07:16:35;17.42;74.93
66522;SHT31;53349;53.538;8.584;2022-09-09T07:19:03;17.42;74.84
66522;SHT31;53349;53.538;8.584;2022-09-09T07:21:30;17.41;74.95
66522;SHT31;53349;53.538;8.584;2022-09-09T07:23:57;17.51;75.00
66522;SHT31;53349;53.538;8.584;2022-09-09T07:26:24;17.55;74.24
66522;SHT31;53349;53.538;8.584;2022-09-09T07:28:50;17.62;74.54
66522;SHT31;53349;53.538;8.584;2022-09-09T07:31:21;17.78;73.95
66522;SHT31;53349;53.538;8.584;2022-09-09T07:33:47;17.74;73.10
66522;SHT31;53349;53.538;8.584;2022-09-09T07:36:15;17.76;73.08
66522;SHT31;53349;53.538;8.584;2022-09-09T07:38:44;17.86;73.32
66522;SHT31;53349;53.538;8.584;2022-09-09T07:41:27;17.82;72.80
66522;SHT31;53349;53.538;8.584;2022-09-09T07:43:53;17.93;73.30
66522;SHT31;53349;53.538;8.584;2022-09-09T07:46:21;18.07;73.16
66522;SHT31;53349;53.538;8.584;2022-09-09T07:48:55;18.17;72.55
66522;SHT31;53349;53.538;8.584;2022-09-09T07:51:24;18.33;72.11
66522;SHT31;53349;53.538;8.584;2022-09-09T07:53:59;18.36;71.84
66522;SHT31;53349;53.538;8.584;2022-09-09T07:56:27;18.38;71.35
66522;SHT31;53349;53.538;8.584;2022-09-09T07:58:54;18.32;70.89
66522;SHT31;53349;53.538;8.584;2022-09-09T08:01:26;18.26;71.01
66522;SHT31;53349;53.538;8.584;2022-09-09T08:03:57;18.20;71.64
66522;SHT31;53349;53.538;8.584;2022-09-09T08:06:28;18.05;72.54
66522;SHT31;53349;53.538;8.584;2022-09-09T08:08:54;18.09;72.70
66522;SHT31;53349;53.538;8.584;2022-09-09T08:11:22;18.16;72.47
66522;SHT31;53349;53.538;8.584;2022-09-09T08:13:49;18.36;72.52
66522;SHT31;53349;53.538;8.584;2022-09-09T08:16:18;18.30;71.84
66522;SHT31;53349;53.538;8.584;2022-09-09T08:18:47;18.41;72.44
66522;SHT31;53349;53.538;8.584;2022-09-09T08:21:15;18.46;72.18
66522;SHT31;53349;53.538;8.584;2022-09-09T08:23:43;18.54;71.66
66522;SHT31;53349;53.538;8.584;2022-09-09T08:28:36;18.56;72.32
66522;SHT31;53349;53.538;8.584;2022-09-09T08:31:06;18.69;72.01
66522;SHT31;53349;53.538;8.584;2022-09-09T08:33:32;18.69;71.00
66522;SHT31;53349;53.538;8.584;2022-09-09T08:35:59;18.57;70.90
66522;SHT31;53349;53.538;8.584;2022-09-09T08:38:25;18.64;70.41
66522;SHT31;53349;53.538;8.584;2022-09-09T08:40:53;18.64;70.53
66522;SHT31;53349;53.538;8.584;2022-09-09T08:43:27;18.78;70.50
66522;SHT31;53349;53.538;8.584;2022-09-09T08:46:03;18.95;70.44
66522;SHT31;53349;53.538;8.584;2022-09-09T08:48:57;19.08;69.85
66522;SHT31;53349;53.538;8.584;2022-09-09T08:51:30;19.15;69.51
66522;SHT31;53349;53.538;8.584;2022-09-09T08:53:58;19.16;69.06
66522;SHT31;53349;53.538;8.584;2022-09-09T08:56:27;19.19;69.25
66522;SHT31;53349;53.538;8.584;2022-09-09T08:58:54;19.39;68.95
66522;SHT31;53349;53.538;8.584;2022-09-09T09:01:41;19.86;67.06
66522;SHT31;53349;53.538;8.584;2022-09-09T09:07:13;20.51;64.25
66522;SHT31;53349;53.538;8.584;2022-09-09T09:12:26;21.14;63.09
66522;SHT31;53349;53.538;8.584;2022-09-09T09:14:54;21.11;62.76
66522;SHT31;53349;53.538;8.584;2022-09-09T09:17:24;21.13;62.65
66522;SHT31;53349;53.538;8.584;2022-09-09T09:19:50;21.00;62.97
66522;SHT31;53349;53.538;8.584;2022-09-09T09:22:28;20.93;62.20
66522;SHT31;53349;53.538;8.584;2022-09-09T09:27:36;20.80;62.65
66522;SHT31;53349;53.538;8.584;2022-09-09T09:30:15;21.34;62.11
66522;SHT31;53349;53.538;8.584;2022-09-09T09:32:47;21.43;61.08
66522;SHT31;53349;53.538;8.584;2022-09-09T09:35:13;21.82;60.18
66522;SHT31;53349;53.538;8.584;2022-09-09T09:37:40;21.65;59.88
66522;SHT31;53349;53.538;8.584;2022-09-09T09:40:12;21.27;59.97
66522;SHT31;53349;53.538;8.584;2022-09-09T09:42:38;21.27;59.83
66522;SHT31;53349;53.538;8.584;2022-09-09T09:45:34;21.55;59.92
66522;SHT31;53349;53.538;8.584;2022-09-09T09:48:02;21.67;58.64
66522;SHT31;53349;53.538;8.584;2022-09-09T09:50:28;22.09;57.99
66522;SHT31;53349;53.538;8.584;2022-09-09T09:52:56;22.19;56.81
66522;SHT31;53349;53.538;8.584;2022-09-09T09:55:23;21.91;57.72
66522;SHT31;53349;53.538;8.584;2022-09-09T09:57:50;21.77;58.00
66522;SHT31;53349;53.538;8.584;2022-09-09T10:00:21;21.77;58.12
66522;SHT31;53349;53.538;8.584;2022-09-09T10:02:48;21.67;58.59
66522;SHT31;53349;53.538;8.584;2022-09-09T10:05:27;21.69;58.48
66522;SHT31;53349;53.538;8.584;2022-09-09T10:08:10;21.46;59.04
66522;SHT31;53349;53.538;8.584;2022-09-09T10:19:36;21.67;59.27
66522;SHT31;53349;53.538;8.584;2022-09-09T10:22:14;21.47;59.74
66522;SHT31;53349;53.538;8.584;2022-09-09T10:28:15;20.96;61.29
66522;SHT31;53349;53.538;8.584;2022-09-09T10:34:03;21.34;61.71
66522;SHT31;53349;53.538;8.584;2022-09-09T10:36:46;21.61;60.76
66522;SHT31;53349;53.538;8.584;2022-09-09T10:39:27;21.54;59.24
66522;SHT31;53349;53.538;8.584;2022-09-09T10:42:16;21.40;60.14
66522;SHT31;53349;53.538;8.584;2022-09-09T10:45:07;21.37;59.51
66522;SHT31;53349;53.538;8.584;2022-09-09T10:50:48;21.51;60.01
66522;SHT31;53349;53.538;8.584;2022-09-09T10:53:36;21.81;58.72
66522;SHT31;53349;53.538;8.584;2022-09-09T10:56:09;21.85;58.15
66522;SHT31;53349;53.538;8.584;2022-09-09T10:59:00;21.92;56.37
66522;SHT31;53349;53.538;8.584;2022-09-09T11:01:44;21.95;56.11
66522;SHT31;53349;53.538;8.584;2022-09-09T11:04:39;22.15;55.18
66522;SHT31;53349;53.538;8.584;2022-09-09T11:07:10;22.19;54.58
66522;SHT31;53349;53.538;8.584;2022-09-09T11:09:49;22.29;54.49
66522;SHT31;53349;53.538;8.584;2022-09-09T11:12:19;22.28;54.45
66522;SHT31;53349;53.538;8.584;2022-09-09T11:14:57;22.33;54.90
66522;SHT31;53349;53.538;8.584;2022-09-09T11:17:40;22.32;54.82
66522;SHT31;53349;53.538;8.584;2022-09-09T11:20:12;22.40;54.58
66522;SHT31;53349;53.538;8.584;2022-09-09T11:25:17;22.56;55.17
66522;SHT31;53349;53.538;8.584;2022-09-09T11:36:15;22.09;55.97
66522;SHT31;53349;53.538;8.584;2022-09-09T11:38:46;22.08;56.31
66522;SHT31;53349;53.538;8.584;2022-09-09T11:41:14;22.04;56.76
66522;SHT31;53349;53.538;8.584;2022-09-09T11:43:44;22.05;56.71
66522;SHT31;53349;53.538;8.584;2022-09-09T11:46:13;22.13;56.10
66522;SHT31;53349;53.538;8.584;2022-09-09T11:48:43;22.12;55.67
66522;SHT31;53349;53.538;8.584;2022-09-09T11:51:13;22.05;55.36
66522;SHT31;53349;53.538;8.584;2022-09-09T11:53:58;21.89;55.66
66522;SHT31;53349;53.538;8.584;2022-09-09T11:56:34;22.01;55.54
66522;SHT31;53349;53.538;8.584;2022-09-09T11:59:23;22.05;55.63
66522;SHT31;53349;53.538;8.584;2022-09-09T12:01:54;22.22;56.21
66522;SHT31;53349;53.538;8.584;2022-09-09T12:06:56;22.30;55.55
66522;SHT31;53349;53.538;8.584;2022-09-09T12:14:42;22.19;55.71
66522;SHT31;53349;53.538;8.584;2022-09-09T12:17:20;22.10;56.69
66522;SHT31;53349;53.538;8.584;2022-09-09T12:19:47;22.13;57.11
66522;SHT31;53349;53.538;8.584;2022-09-09T12:22:35;22.05;57.41
66522;SHT31;53349;53.538;8.584;2022-09-09T12:28:06;21.67;58.34
66522;SHT31;53349;53.538;8.584;2022-09-09T12:30:50;21.62;58.71
66522;SHT31;53349;53.538;8.584;2022-09-09T12:33:19;21.54;59.46
66522;SHT31;53349;53.538;8.584;2022-09-09T12:35:51;21.46;60.02
66522;SHT31;53349;53.538;8.584;2022-09-09T12:38:30;21.24;62.47
66522;SHT31;53349;53.538;8.584;2022-09-09T12:40:57;21.03;64.88
66522;SHT31;53349;53.538;8.584;2022-09-09T12:43:25;20.80;65.83
66522;SHT31;53349;53.538;8.584;2022-09-09T12:45:54;20.76;66.72
66522;SHT31;53349;53.538;8.584;2022-09-09T12:48:28;20.66;67.32
66522;SHT31;53349;53.538;8.584;2022-09-09T12:50:55;20.59;66.68
66522;SHT31;53349;53.538;8.584;2022-09-09T12:53:47;20.58;67.12
66522;SHT31;53349;53.538;8.584;2022-09-09T12:56:21;20.53;66.98
66522;SHT31;53349;53.538;8.584;2022-09-09T12:58:49;20.53;67.37
66522;SHT31;53349;53.538;8.584;2022-09-09T13:01:33;20.68;68.24
66522;SHT31;53349;53.538;8.584;2022-09-09T13:03:58;20.72;67.95
66522;SHT31;53349;53.538;8.584;2022-09-09T13:06:26;20.76;68.39
66522;SHT31;53349;53.538;8.584;2022-09-09T13:08:54;20.82;67.82
66522;SHT31;53349;53.538;8.584;2022-09-09T13:11:40;20.82;67.78
66522;SHT31;53349;53.538;8.584;2022-09-09T13:14:18;20.82;67.89
66522;SHT31;53349;53.538;8.584;2022-09-09T13:16:57;20.78;68.17
66522;SHT31;53349;53.538;8.584;2022-09-09T13:19:22;20.71;67.33
66522;SHT31;53349;53.538;8.584;2022-09-09T13:21:51;20.73;66.84
66522;SHT31;53349;53.538;8.584;2022-09-09T13:24:34;20.76;66.85
66522;SHT31;53349;53.538;8.584;2022-09-09T13:27:05;20.76;67.06
66522;SHT31;53349;53.538;8.584;2022-09-09T13:29:52;20.73;66.11
66522;SHT31;53349;53.538;8.584;2022-09-09T13:32:22;20.65;64.91
66522;SHT31;53349;53.538;8.584;2022-09-09T13:34:55;20.56;64.99
66522;SHT31;53349;53.538;8.584;2022-09-09T13:37:36;20.53;64.67
66522;SHT31;53349;53.538;8.584;2022-09-09T13:40:03;20.51;63.98
66522;SHT31;53349;53.538;8.584;2022-09-09T13:42:32;20.48;62.40
66522;SHT31;53349;53.538;8.584;2022-09-09T13:45:00;20.41;62.85
66522;SHT31;53349;53.538;8.584;2022-09-09T13:47:32;20.34;63.35
66522;SHT31;53349;53.538;8.584;2022-09-09T13:50:19;20.35;63.94
66522;SHT31;53349;53.538;8.584;2022-09-09T13:52:45;20.38;64.65
66522;SHT31;53349;53.538;8.584;2022-09-09T13:55:12;20.41;65.34
66522;SHT31;53349;53.538;8.584;2022-09-09T13:57:38;20.44;65.94
66522;SHT31;53349;53.538;8.584;2022-09-09T14:00:03;20.51;66.11
66522;SHT31;53349;53.538;8.584;2022-09-09T14:02:31;20.48;64.99
66522;SHT31;53349;53.538;8.584;2022-09-09T14:04:56;20.42;63.98
66522;SHT31;53349;53.538;8.584;2022-09-09T14:07:21;20.45;64.00
66522;SHT31;53349;53.538;8.584;2022-09-09T14:09:47;20.48;63.15
66522;SHT31;53349;53.538;8.584;2022-09-09T14:12:15;20.47;62.82
66522;SHT31;53349;53.538;8.584;2022-09-09T14:14:41;20.49;62.53
66522;SHT31;53349;53.538;8.584;2022-09-09T14:17:10;20.55;63.46
66522;SHT31;53349;53.538;8.584;2022-09-09T14:19:36;20.55;63.09
66522;SHT31;53349;53.538;8.584;2022-09-09T14:22:04;20.61;63.43
66522;SHT31;53349;53.538;8.584;2022-09-09T14:24:30;20.59;62.80
66522;SHT31;53349;53.538;8.584;2022-09-09T14:26:56;20.68;63.05
66522;SHT31;53349;53.538;8.584;2022-09-09T14:29:21;20.66;62.13
66522;SHT31;53349;53.538;8.584;2022-09-09T14:31:46;20.62;62.01
66522;SHT31;53349;53.538;8.584;2022-09-09T14:34:12;20.58;60.54
66522;SHT31;53349;53.538;8.584;2022-09-09T14:36:39;20.55;60.34
66522;SHT31;53349;53.538;8.584;2022-09-09T14:39:08;20.52;59.97
66522;SHT31;53349;53.538;8.584;2022-09-09T14:41:33;20.49;60.00
66522;SHT31;53349;53.538;8.584;2022-09-09T14:43:58;20.47;61.35
66522;SHT31;53349;53.538;8.584;2022-09-09T14:46:25;20.44;62.01
66522;SHT31;53349;53.538;8.584;2022-09-09T14:48:50;20.37;62.43
66522;SHT31;53349;53.538;8.584;2022-09-09T14:51:22;20.29;62.33
66522;SHT31;53349;53.538;8.584;2022-09-09T14:53:48;20.28;62.98
66522;SHT31;53349;53.538;8.584;2022-09-09T14:56:17;20.20;63.18
66522;SHT31;53349;53.538;8.584;2022-09-09T14:58:43;20.14;63.33
66522;SHT31;53349;53.538;8.584;2022-09-09T15:01:14;20.06;63.47
66522;SHT31;53349;53.538;8.584;2022-09-09T15:03:41;20.01;63.80
66522;SHT31;53349;53.538;8.584;2022-09-09T15:06:11;20.00;64.05
66522;SHT31;53349;53.538;8.584;2022-09-09T15:08:37;19.96;64.57
66522;SHT31;53349;53.538;8.584;2022-09-09T15:11:04;19.96;64.83
66522;SHT31;53349;53.538;8.584;2022-09-09T15:13:30;19.96;64.96
66522;SHT31;53349;53.538;8.584;2022-09-09T15:15:55;19.88;65.19
66522;SHT31;53349;53.538;8.584;2022-09-09T15:18:23;19.86;65.25
66522;SHT31;53349;53.538;8.584;2022-09-09T15:20:48;19.83;65.90
66522;SHT31;53349;53.538;8.584;2022-09-09T15:23:14;19.81;66.17
66522;SHT31;53349;53.538;8.584;2022-09-09T15:25:51;19.71;66.39
66522;SHT31;53349;53.538;8.584;2022-09-09T15:28:17;19.67;66.60
66522;SHT31;53349;53.538;8.584;2022-09-09T15:30:42;19.66;66.95
66522;SHT31;53349;53.538;8.584;2022-09-09T15:33:10;19.62;67.17
66522;SHT31;53349;53.538;8.584;2022-09-09T15:35:35;19.53;67.43
66522;SHT31;53349;53.538;8.584;2022-09-09T15:38:04;19.53;67.45
66522;SHT31;53349;53.538;8.584;2022-09-09T15:40:32;19.49;67.68
66522;SHT31;53349;53.538;8.584;2022-09-09T15:43:00;19.40;66.75
66522;SHT31;53349;53.538;8.584;2022-09-09T15:45:27;19.42;66.38
66522;SHT31;53349;53.538;8.584;2022-09-09T15:47:52;19.39;66.12
66522;SHT31;53349;53.538;8.584;2022-09-09T15:50:18;19.39;66.21
66522;SHT31;53349;53.538;8.584;2022-09-09T15:52:43;19.33;66.40
66522;SHT31;53349;53.538;8.584;2022-09-09T15:55:09;19.33;66.67
66522;SHT31;53349;53.538;8.584;2022-09-09T15:57:35;19.35;66.77
66522;SHT31;53349;53.538;8.584;2022-09-09T16:00:03;19.35;66.73
66522;SHT31;53349;53.538;8.584;2022-09-09T16:02:29;19.30;67.04
66522;SHT31;53349;53.538;8.584;2022-09-09T16:04:56;19.36;66.95
66522;SHT31;53349;53.538;8.584;2022-09-09T16:07:22;19.32;67.04
66522;SHT31;53349;53.538;8.584;2022-09-09T16:09:48;19.29;67.26
66522;SHT31;53349;53.538;8.584;2022-09-09T16:12:16;19.25;67.64
66522;SHT31;53349;53.538;8.584;2022-09-09T16:14:42;19.18;68.00
66522;SHT31;53349;53.538;8.584;2022-09-09T16:17:07;19.14;68.30
66522;SHT31;53349;53.538;8.584;2022-09-09T16:19:33;19.08;68.58
66522;SHT31;53349;53.538;8.584;2022-09-09T16:22:00;19.08;68.96
66522;SHT31;53349;53.538;8.584;2022-09-09T16:24:25;19.08;69.01
66522;SHT31;53349;53.538;8.584;2022-09-09T16:26:52;19.11;69.12
66522;SHT31;53349;53.538;8.584;2022-09-09T16:29:20;19.07;69.43
66522;SHT31;53349;53.538;8.584;2022-09-09T16:31:47;19.02;69.59
66522;SHT31;53349;53.538;8.584;2022-09-09T16:34:13;18.99;69.72
66522;SHT31;53349;53.538;8.584;2022-09-09T16:36:40;18.89;70.09
66522;SHT31;53349;53.538;8.584;2022-09-09T16:39:08;18.88;70.15
66522;SHT31;53349;53.538;8.584;2022-09-09T16:41:34;18.85;70.37
66522;SHT31;53349;53.538;8.584;2022-09-09T16:44:02;18.79;70.37
66522;SHT31;53349;53.538;8.584;2022-09-09T16:46:30;18.78;70.45
66522;SHT31;53349;53.538;8.584;2022-09-09T16:48:58;18.74;70.63
66522;SHT31;53349;53.538;8.584;2022-09-09T16:51:26;18.69;70.92
66522;SHT31;53349;53.538;8.584;2022-09-09T16:53:53;18.67;70.91
66522;SHT31;53349;53.538;8.584;2022-09-09T16:56:21;18.64;71.01
66522;SHT31;53349;53.538;8.584;2022-09-09T16:58:52;18.60;71.06
66522;SHT31;53349;53.538;8.584;2022-09-09T17:01:21;18.60;70.96
66522;SHT31;53349;53.538;8.584;2022-09-09T17:03:46;18.56;70.99
66522;SHT31;53349;53.538;8.584;2022-09-09T17:06:14;18.48;71.15
66522;SHT31;53349;53.538;8.584;2022-09-09T17:08:40;18.43;71.17
66522;SHT31;53349;53.538;8.584;2022-09-09T17:11:16;18.47;71.11
66522;SHT31;53349;53.538;8.584;2022-09-09T17:13:47;18.44;71.03